createdAt,value
2022-10-19T00:01:29.636Z,9.72
2022-10-19T00:03:56.043Z,9.80
2022-10-19T00:06:26.338Z,9.75
2022-10-19T00:08:54.817Z,9.69
2022-10-19T00:11:21.750Z,9.63
2022-10-19T00:13:48.130Z,9.57
2022-10-19T00:16:16.414Z,9.51
2022-10-19T00:18:44.834Z,9.55
2022-10-19T00:21:15.318Z,9.52
2022-10-19T00:23:42.318Z,9.44
2022-10-19T00:26:08.858Z,9.37
2022-10-19T00:28:35.933Z,9.29
2022-10-19T00:31:05.322Z,9.30
2022-10-19T00:33:31.989Z,9.19
2022-10-19T00:35:58.369Z,9.11
2022-10-19T00:38:25.008Z,9.02
2022-10-19T00:40:51.516Z,8.98
2022-10-19T00:43:20.997Z,8.91
2022-10-19T00:45:47.721Z,8.96
2022-10-19T00:48:19.065Z,8.98
2022-10-19T00:50:46.882Z,9.11
2022-10-19T00:53:13.353Z,9.17
2022-10-19T00:55:41.000Z,9.29
2022-10-19T00:58:08.007Z,9.42
2022-10-19T01:00:34.593Z,9.52
2022-10-19T01:03:02.756Z,9.52
2022-10-19T01:05:30.755Z,9.50
2022-10-19T01:07:57.411Z,9.44
2022-10-19T01:10:44.771Z,9.37
2022-10-19T01:13:25.313Z,9.26
2022-10-19T01:16:02.510Z,9.18
2022-10-19T01:18:45.902Z,9.03
2022-10-19T01:21:20.201Z,9.01
2022-10-19T01:24:01.598Z,8.93
2022-10-19T01:27:06.218Z,8.83
2022-10-19T01:30:02.742Z,8.57
2022-10-19T01:32:44.218Z,8.28
2022-10-19T01:35:28.629Z,8.07
2022-10-19T01:38:40.851Z,7.86
2022-10-19T01:41:16.695Z,7.68
2022-10-19T01:43:50.854Z,7.54
2022-10-19T01:46:29.120Z,7.43
2022-10-19T01:49:02.398Z,7.30
2022-10-19T01:51:40.248Z,7.22
2022-10-19T01:54:11.924Z,7.15
2022-10-19T01:56:42.185Z,7.09
2022-10-19T01:59:10.735Z,7.03
2022-10-19T02:01:41.379Z,6.96
2022-10-19T02:04:08.748Z,6.85
2022-10-19T02:06:35.619Z,6.74
2022-10-19T02:09:02.051Z,6.67
2022-10-19T02:11:30.665Z,6.57
2022-10-19T02:14:04.134Z,6.50
2022-10-19T02:16:40.876Z,6.45
2022-10-19T02:19:08.713Z,6.38
2022-10-19T02:21:35.134Z,6.32
2022-10-19T02:24:01.463Z,6.30
2022-10-19T02:26:28.087Z,6.36
2022-10-19T02:28:56.369Z,6.33
2022-10-19T02:31:23.549Z,6.34
2022-10-19T02:33:49.972Z,6.33
2022-10-19T02:36:17.320Z,6.34
2022-10-19T02:38:43.942Z,6.33
2022-10-19T02:41:34.530Z,6.32
2022-10-19T02:44:05.412Z,6.28
2022-10-19T02:49:13.207Z,6.26
2022-10-19T02:51:55.525Z,6.26
2022-10-19T02:54:21.903Z,6.21
2022-10-19T02:56:48.241Z,6.25
2022-10-19T02:59:14.590Z,6.28
2022-10-19T03:01:40.958Z,6.30
2022-10-19T03:04:07.295Z,6.30
2022-10-19T03:06:33.797Z,6.30
2022-10-19T03:09:00.416Z,6.41
2022-10-19T03:11:26.822Z,6.53
2022-10-19T03:13:53.231Z,6.63
2022-10-19T03:16:19.736Z,6.70
2022-10-19T03:18:48.746Z,6.72
2022-10-19T03:21:15.177Z,6.78
2022-10-19T03:23:41.874Z,6.76
2022-10-19T03:26:12.414Z,6.78
2022-10-19T03:28:39.052Z,6.84
2022-10-19T03:31:05.799Z,6.87
2022-10-19T03:33:32.166Z,6.88
2022-10-19T03:36:17.714Z,6.90
2022-10-19T03:38:44.132Z,6.88
2022-10-19T03:41:10.820Z,6.88
2022-10-19T03:43:37.275Z,6.89
2022-10-19T03:46:03.760Z,6.93
2022-10-19T03:48:30.189Z,6.98
2022-10-19T03:51:07.654Z,7.04
2022-10-19T03:53:34.657Z,7.01
2022-10-19T03:56:03.082Z,7.03
2022-10-19T03:58:30.973Z,7.02
2022-10-19T04:00:57.416Z,6.99
2022-10-19T04:03:23.874Z,6.94
2022-10-19T04:05:50.314Z,6.90
2022-10-19T04:08:16.696Z,6.88
2022-10-19T04:10:43.137Z,6.94
2022-10-19T04:13:09.544Z,6.96
2022-10-19T04:15:35.918Z,7.05
2022-10-19T04:18:02.433Z,7.19
2022-10-19T04:20:28.761Z,7.24
2022-10-19T04:22:55.136Z,7.35
2022-10-19T04:25:21.658Z,7.51
2022-10-19T04:27:48.024Z,7.57
2022-10-19T04:30:14.397Z,7.61
2022-10-19T04:32:40.776Z,7.63
2022-10-19T04:35:07.715Z,7.64
2022-10-19T04:37:34.345Z,7.62
2022-10-19T04:40:00.972Z,7.64
2022-10-19T04:42:27.302Z,7.65
2022-10-19T04:44:53.662Z,7.56
2022-10-19T04:47:20.065Z,7.51
2022-10-19T04:49:46.432Z,7.47
2022-10-19T04:52:12.789Z,7.51
2022-10-19T04:54:39.146Z,7.53
2022-10-19T04:57:05.530Z,7.53
2022-10-19T04:59:32.149Z,7.55
2022-10-19T05:01:58.501Z,7.57
2022-10-19T05:04:24.896Z,7.65
2022-10-19T05:06:51.282Z,7.71
2022-10-19T05:09:17.651Z,7.74
2022-10-19T05:11:44.032Z,7.73
2022-10-19T05:14:10.566Z,7.77
2022-10-19T05:16:37.002Z,7.83
2022-10-19T05:19:03.606Z,7.82
2022-10-19T05:21:30.030Z,7.86
2022-10-19T05:23:57.391Z,7.92
2022-10-19T05:26:26.604Z,7.88
2022-10-19T05:28:59.272Z,7.81
2022-10-19T05:31:31.188Z,7.73
2022-10-19T05:33:58.851Z,7.71
2022-10-19T05:36:34.410Z,7.76
2022-10-19T05:39:22.411Z,7.74
2022-10-19T05:41:49.144Z,7.77
2022-10-19T05:44:21.150Z,7.77
2022-10-19T05:46:48.724Z,7.77
2022-10-19T05:49:17.342Z,7.81
2022-10-19T05:51:43.786Z,7.82
2022-10-19T05:54:11.465Z,7.80
2022-10-19T05:56:39.202Z,7.74
2022-10-19T05:59:07.094Z,7.82
2022-10-19T06:01:34.378Z,7.80
2022-10-19T06:04:02.324Z,7.80
2022-10-19T06:06:28.973Z,7.75
2022-10-19T06:08:56.820Z,7.79
2022-10-19T06:11:26.345Z,7.81
2022-10-19T06:13:55.446Z,7.84
2022-10-19T06:16:23.947Z,7.85
2022-10-19T06:18:50.671Z,7.90
2022-10-19T06:21:19.671Z,7.92
2022-10-19T06:24:03.854Z,7.96
2022-10-19T06:26:32.566Z,8.03
2022-10-19T06:29:00.991Z,8.08
2022-10-19T06:31:28.817Z,8.16
2022-10-19T06:33:56.097Z,8.20
2022-10-19T06:36:25.348Z,8.24
2022-10-19T06:38:53.142Z,8.31
2022-10-19T06:41:20.713Z,8.47
2022-10-19T06:43:51.839Z,8.67
2022-10-19T06:46:20.397Z,8.74
2022-10-19T06:49:04.829Z,8.85
2022-10-19T06:51:33.910Z,8.95
2022-10-19T06:54:00.283Z,9.07
2022-10-19T06:56:26.865Z,9.14
2022-10-19T06:58:54.267Z,9.19
2022-10-19T07:01:21.624Z,9.29
2022-10-19T07:03:48.064Z,9.31
2022-10-19T07:06:14.597Z,9.38
2022-10-19T07:08:42.352Z,9.40
2022-10-19T07:11:12.049Z,9.51
2022-10-19T07:13:38.827Z,9.60
2022-10-19T07:16:15.796Z,9.67
2022-10-19T07:18:46.462Z,9.82
2022-10-19T07:21:14.990Z,9.93
2022-10-19T07:23:44.132Z,10.00
2022-10-19T07:26:30.444Z,9.99
2022-10-19T07:28:57.605Z,9.97
2022-10-19T07:31:25.471Z,9.97
2022-10-19T07:33:59.424Z,10.06
2022-10-19T07:36:27.469Z,10.06
2022-10-19T07:38:53.916Z,10.06
2022-10-19T07:41:22.143Z,10.04
2022-10-19T07:43:49.424Z,10.07
2022-10-19T07:46:18.443Z,10.17
2022-10-19T07:48:45.550Z,10.26
2022-10-19T07:51:13.794Z,10.30
2022-10-19T07:53:40.673Z,10.34
2022-10-19T07:56:09.819Z,10.38
2022-10-19T07:58:36.661Z,10.48
2022-10-19T08:01:05.688Z,10.60
2022-10-19T08:06:20.576Z,10.81
2022-10-19T08:08:47.923Z,10.92
2022-10-19T08:11:26.703Z,11.03
2022-10-19T08:13:53.694Z,11.02
2022-10-19T08:16:28.108Z,11.07
2022-10-19T08:18:58.756Z,11.27
2022-10-19T08:21:26.971Z,11.40
2022-10-19T08:23:53.377Z,11.46
2022-10-19T08:26:20.391Z,11.44
2022-10-19T08:28:47.144Z,11.37
2022-10-19T08:31:16.522Z,11.30
2022-10-19T08:33:43.203Z,11.28
2022-10-19T08:36:11.466Z,11.30
2022-10-19T08:38:38.463Z,11.38
2022-10-19T08:41:29.370Z,11.42
2022-10-19T08:44:04.027Z,11.53
2022-10-19T08:46:56.026Z,11.70
2022-10-19T08:49:25.708Z,11.69
2022-10-19T08:52:00.485Z,11.65
2022-10-19T08:54:54.321Z,11.79
2022-10-19T08:57:32.970Z,11.96
2022-10-19T09:00:24.826Z,12.12
2022-10-19T09:02:57.176Z,12.09
2022-10-19T09:05:39.189Z,12.15
2022-10-19T09:08:08.277Z,12.28
2022-10-19T09:10:40.892Z,12.22
2022-10-19T09:13:16.309Z,12.21
2022-10-19T09:15:45.984Z,12.18
2022-10-19T09:18:19.548Z,12.07
2022-10-19T09:20:49.137Z,12.08
2022-10-19T09:23:26.293Z,12.10
2022-10-19T09:25:53.527Z,11.98
2022-10-19T09:28:45.001Z,11.98
2022-10-19T09:31:42.690Z,11.78
2022-10-19T09:34:32.833Z,11.70
2022-10-19T09:37:00.269Z,11.95
2022-10-19T09:39:30.623Z,12.15
2022-10-19T09:42:07.968Z,12.10
2022-10-19T09:44:34.730Z,12.11
2022-10-19T09:47:26.126Z,12.34
2022-10-19T09:50:08.357Z,12.37
2022-10-19T09:52:36.434Z,12.27
2022-10-19T09:55:06.062Z,12.04
2022-10-19T09:57:32.951Z,12.64
2022-10-19T09:59:59.552Z,12.97
2022-10-19T10:02:32.131Z,13.01
2022-10-19T10:05:15.066Z,13.18
2022-10-19T10:07:41.980Z,13.04
2022-10-19T10:10:30.645Z,12.99
2022-10-19T10:13:00.850Z,13.70
2022-10-19T10:15:35.443Z,13.80
2022-10-19T10:18:02.950Z,14.15
2022-10-19T10:20:32.469Z,14.33
2022-10-19T10:23:01.739Z,14.28
2022-10-19T10:25:33.700Z,14.16
2022-10-19T10:28:18.615Z,14.05
2022-10-19T10:30:46.897Z,14.06
2022-10-19T10:33:33.315Z,13.92
2022-10-19T10:36:09.726Z,13.23
2022-10-19T10:38:41.426Z,13.37
2022-10-19T10:41:14.731Z,13.07
2022-10-19T10:43:56.006Z,12.92
2022-10-19T10:46:32.722Z,13.02
2022-10-19T10:49:02.949Z,12.87
2022-10-19T10:51:43.632Z,13.13
2022-10-19T10:54:19.015Z,13.11
2022-10-19T10:57:06.256Z,12.78
2022-10-19T10:59:43.118Z,12.56
2022-10-19T11:05:02.744Z,12.37
2022-10-19T11:07:32.604Z,12.29
2022-10-19T11:10:06.724Z,12.35
2022-10-19T11:12:41.683Z,12.24
2022-10-19T11:18:09.975Z,12.01
2022-10-19T11:20:43.378Z,12.23
2022-10-19T11:23:51.781Z,12.44
2022-10-19T11:26:35.172Z,12.36
2022-10-19T11:29:04.613Z,12.44
2022-10-19T11:31:37.100Z,12.79
2022-10-19T11:34:23.626Z,13.09
2022-10-19T11:37:30.965Z,12.98
2022-10-19T11:40:23.064Z,12.96
2022-10-19T11:43:02.658Z,12.98
2022-10-19T11:45:31.941Z,13.50
2022-10-19T11:48:20.738Z,13.27
2022-10-19T11:51:16.812Z,13.37
2022-10-19T11:54:14.607Z,13.25
2022-10-19T11:57:06.356Z,13.55
2022-10-19T11:59:47.829Z,13.59
2022-10-19T12:02:41.671Z,13.82
2022-10-19T12:05:32.840Z,13.71
2022-10-19T12:08:31.687Z,13.86
2022-10-19T12:11:09.867Z,14.09
2022-10-19T12:13:49.142Z,14.05
2022-10-19T12:16:17.242Z,13.99
2022-10-19T12:18:48.936Z,14.17
2022-10-19T12:21:39.850Z,14.70
2022-10-19T12:24:24.415Z,14.76
2022-10-19T12:26:53.704Z,14.60
2022-10-19T12:29:26.645Z,14.94
2022-10-19T12:31:55.258Z,15.06
2022-10-19T12:34:53.971Z,15.68
2022-10-19T12:37:38.530Z,15.86
2022-10-19T12:40:05.021Z,16.42
2022-10-19T12:42:59.439Z,16.62
2022-10-19T12:45:33.819Z,16.74
2022-10-19T12:48:11.020Z,17.14
2022-10-19T12:50:49.213Z,16.47
2022-10-19T12:53:38.108Z,15.98
2022-10-19T12:56:24.068Z,17.50
2022-10-19T12:58:57.369Z,18.26
2022-10-19T13:01:35.751Z,17.66
2022-10-19T13:04:22.689Z,17.22
2022-10-19T13:06:59.114Z,16.82
2022-10-19T13:09:35.248Z,17.20
2022-10-19T13:12:17.672Z,16.15
2022-10-19T13:14:55.476Z,15.66
2022-10-19T13:17:34.346Z,15.69
2022-10-19T13:20:13.136Z,16.17
2022-10-19T13:22:40.079Z,16.17
2022-10-19T13:25:21.824Z,14.61
2022-10-19T13:27:52.447Z,14.01
2022-10-19T13:30:41.737Z,14.28
2022-10-19T13:33:30.129Z,15.21
2022-10-19T13:35:59.478Z,15.04
2022-10-19T13:38:45.586Z,14.76
2022-10-19T13:41:25.707Z,15.07
2022-10-19T13:43:57.810Z,14.45
2022-10-19T13:46:30.192Z,14.89
2022-10-19T13:49:27.745Z,14.39
2022-10-19T13:52:11.727Z,14.85
2022-10-19T13:54:49.337Z,15.82
2022-10-19T13:57:50.065Z,15.72
2022-10-19T14:00:22.286Z,17.30
2022-10-19T14:03:05.465Z,17.69
2022-10-19T14:06:06.452Z,17.36
2022-10-19T14:08:42.103Z,17.62
2022-10-19T14:11:16.371Z,18.19
2022-10-19T14:13:43.424Z,17.88
2022-10-19T14:16:20.914Z,17.30
2022-10-19T14:18:56.667Z,16.63
2022-10-19T14:21:32.169Z,16.45
2022-10-19T14:23:59.449Z,16.54
2022-10-19T14:26:32.354Z,16.43
2022-10-19T14:28:59.893Z,15.24
2022-10-19T14:31:34.044Z,14.24
2022-10-19T14:34:04.310Z,13.31
2022-10-19T14:36:36.010Z,12.85
2022-10-19T14:39:02.581Z,12.48
2022-10-19T14:44:43.395Z,12.12
2022-10-19T14:47:23.933Z,12.05
2022-10-19T14:49:50.792Z,11.94
2022-10-19T14:52:22.294Z,11.90
2022-10-19T14:54:54.170Z,11.87
2022-10-19T14:57:27.345Z,11.83
2022-10-19T15:00:03.145Z,11.86
2022-10-19T15:02:38.609Z,11.89
2022-10-19T15:05:14.933Z,11.87
2022-10-19T15:07:43.231Z,11.85
2022-10-19T15:10:18.594Z,11.83
2022-10-19T15:12:45.738Z,11.72
2022-10-19T15:15:25.337Z,11.68
2022-10-19T15:17:56.143Z,11.65
2022-10-19T15:20:39.659Z,11.63
2022-10-19T15:23:34.414Z,11.50
2022-10-19T15:26:17.271Z,11.42
2022-10-19T15:28:44.414Z,11.36
2022-10-19T15:31:17.075Z,11.27
2022-10-19T15:33:47.752Z,11.23
2022-10-19T15:36:17.370Z,11.17
2022-10-19T15:38:45.662Z,11.11
2022-10-19T15:41:18.800Z,11.06
2022-10-19T15:43:50.880Z,10.99
2022-10-19T15:46:32.285Z,10.96
2022-10-19T15:49:23.697Z,10.85
2022-10-19T15:51:50.547Z,10.75
2022-10-19T15:54:19.005Z,10.66
2022-10-19T15:56:50.417Z,10.59
2022-10-19T15:59:19.995Z,10.53
2022-10-19T16:01:51.378Z,10.48
2022-10-19T16:04:20.197Z,10.42
2022-10-19T16:06:46.862Z,10.34
2022-10-19T16:09:19.347Z,10.31
2022-10-19T16:11:46.103Z,10.26
2022-10-19T16:14:12.977Z,10.20
2022-10-19T16:16:39.702Z,10.17
2022-10-19T16:19:06.189Z,10.20
2022-10-19T16:21:35.544Z,10.16
2022-10-19T16:24:01.964Z,10.10
2022-10-19T16:26:29.182Z,10.06
2022-10-19T16:28:56.585Z,10.05
2022-10-19T16:31:24.034Z,9.99
2022-10-19T16:33:50.735Z,9.97
2022-10-19T16:36:20.145Z,9.98
2022-10-19T16:38:47.731Z,9.92
2022-10-19T16:41:14.636Z,9.93
2022-10-19T16:43:41.148Z,9.89
2022-10-19T16:46:07.677Z,9.87
2022-10-19T16:48:34.203Z,9.86
2022-10-19T16:51:12.502Z,9.80
2022-10-19T16:53:38.894Z,9.80
2022-10-19T16:56:10.777Z,9.81
2022-10-19T16:58:37.275Z,9.78
2022-10-19T17:01:08.401Z,9.73
2022-10-19T17:03:35.315Z,9.70
2022-10-19T17:06:03.621Z,9.67
2022-10-19T17:08:37.322Z,9.66
2022-10-19T17:11:22.448Z,9.70
2022-10-19T17:13:51.266Z,9.68
2022-10-19T17:16:19.444Z,9.69
2022-10-19T17:18:46.734Z,9.71
2022-10-19T17:21:19.046Z,9.68
2022-10-19T17:23:46.113Z,9.66
2022-10-19T17:26:13.242Z,9.62
2022-10-19T17:28:40.113Z,9.63
2022-10-19T17:31:09.130Z,9.69
2022-10-19T17:33:36.509Z,9.66
2022-10-19T17:36:14.745Z,9.68
2022-10-19T17:38:41.970Z,9.66
2022-10-19T17:41:11.622Z,9.74
2022-10-19T17:43:39.655Z,9.69
2022-10-19T17:46:08.397Z,9.65
2022-10-19T17:48:36.318Z,9.64
2022-10-19T17:51:10.432Z,9.59
2022-10-19T17:53:36.804Z,9.60
2022-10-19T17:56:06.582Z,9.60
2022-10-19T17:58:36.416Z,9.58
2022-10-19T18:01:07.392Z,9.60
2022-10-19T18:03:35.363Z,9.55
2022-10-19T18:06:11.969Z,9.52
2022-10-19T18:08:41.238Z,9.51
2022-10-19T18:11:08.986Z,9.47
2022-10-19T18:16:10.779Z,9.37
2022-10-19T18:18:38.545Z,9.30
2022-10-19T18:21:07.161Z,9.33
2022-10-19T18:23:33.675Z,9.31
2022-10-19T18:26:19.696Z,9.27
2022-10-19T18:28:46.531Z,9.11
2022-10-19T18:31:21.333Z,9.12
2022-10-19T18:33:54.203Z,9.09
2022-10-19T18:36:20.897Z,9.06
2022-10-19T18:38:55.301Z,9.06
2022-10-19T18:41:22.059Z,9.00
2022-10-19T18:44:04.341Z,8.95
2022-10-19T18:46:32.483Z,8.84
2022-10-19T18:49:04.010Z,8.79
2022-10-19T18:51:31.826Z,8.77
2022-10-19T18:53:59.033Z,8.74
2022-10-19T18:56:26.272Z,8.75
2022-10-19T18:58:52.686Z,8.73
2022-10-19T19:01:26.434Z,8.69
2022-10-19T19:03:55.489Z,8.65
2022-10-19T19:06:29.266Z,8.63
2022-10-19T19:08:57.671Z,8.58
2022-10-19T19:11:27.014Z,8.59
2022-10-19T19:13:55.988Z,8.66
2022-10-19T19:16:24.248Z,8.64
2022-10-19T19:18:51.433Z,8.60
2022-10-19T19:21:20.788Z,8.58
2022-10-19T19:23:48.149Z,8.52
2022-10-19T19:26:16.963Z,8.55
2022-10-19T19:28:45.269Z,8.55
2022-10-19T19:31:17.028Z,8.53
2022-10-19T19:33:44.814Z,8.55
2022-10-19T19:36:13.929Z,8.54
2022-10-19T19:38:41.126Z,8.49
2022-10-19T19:41:09.156Z,8.45
2022-10-19T19:43:37.545Z,8.43
2022-10-19T19:46:09.381Z,8.43
2022-10-19T19:48:36.743Z,8.41
2022-10-19T19:51:03.538Z,8.37
2022-10-19T19:53:29.973Z,8.37
2022-10-19T19:55:56.337Z,8.41
2022-10-19T19:58:22.674Z,8.35
2022-10-19T20:00:49.073Z,8.41
2022-10-19T20:03:16.244Z,8.37
2022-10-19T20:05:42.673Z,8.34
2022-10-19T20:08:09.472Z,8.38
2022-10-19T20:10:40.851Z,8.29
2022-10-19T20:13:07.807Z,8.33
2022-10-19T20:15:37.623Z,8.28
2022-10-19T20:18:04.212Z,8.30
2022-10-19T20:20:30.654Z,8.28
2022-10-19T20:22:57.392Z,8.23
2022-10-19T20:25:23.741Z,8.24
2022-10-19T20:27:50.103Z,8.24
2022-10-19T20:30:16.518Z,8.28
2022-10-19T20:32:42.871Z,8.27
2022-10-19T20:35:09.480Z,8.35
2022-10-19T20:37:35.858Z,8.31
2022-10-19T20:40:07.438Z,8.24
2022-10-19T20:42:35.381Z,8.24
2022-10-19T20:45:01.916Z,8.20
2022-10-19T20:47:28.258Z,8.12
2022-10-19T20:49:54.736Z,8.18
2022-10-19T20:52:21.184Z,8.20
2022-10-19T20:54:48.388Z,8.16
2022-10-19T20:57:15.081Z,8.20
2022-10-19T20:59:43.692Z,8.22
2022-10-19T21:02:10.748Z,8.15
2022-10-19T21:04:37.310Z,8.12
2022-10-19T21:07:04.880Z,8.12
2022-10-19T21:09:31.441Z,8.14
2022-10-19T21:11:58.089Z,8.12
2022-10-19T21:14:28.433Z,8.10
2022-10-19T21:16:59.741Z,8.04
2022-10-19T21:19:27.969Z,8.01
2022-10-19T21:21:57.840Z,8.02
2022-10-19T21:24:28.095Z,8.05
2022-10-19T21:26:54.561Z,8.04
2022-10-19T21:29:21.367Z,7.99
2022-10-19T21:31:50.134Z,8.09
2022-10-19T21:34:22.557Z,8.08
2022-10-19T21:36:49.234Z,8.02
2022-10-19T21:39:15.823Z,8.10
2022-10-19T21:41:42.209Z,8.03
2022-10-19T21:44:08.861Z,7.98
2022-10-19T21:46:35.261Z,7.99
2022-10-19T21:49:01.633Z,7.98
2022-10-19T21:51:35.294Z,8.00
2022-10-19T21:54:03.433Z,7.97
2022-10-19T21:56:29.936Z,7.98
2022-10-19T21:58:56.735Z,7.99
2022-10-19T22:01:26.487Z,7.95
2022-10-19T22:04:00.190Z,7.87
2022-10-19T22:06:28.554Z,7.87
2022-10-19T22:08:55.871Z,7.88
2022-10-19T22:11:23.546Z,7.82
2022-10-19T22:13:53.705Z,7.76
2022-10-19T22:16:20.901Z,7.75
2022-10-19T22:18:48.198Z,7.73
2022-10-19T22:21:17.757Z,7.69
2022-10-19T22:23:45.121Z,7.65
2022-10-19T22:26:21.249Z,7.66
2022-10-19T22:28:47.782Z,7.64
2022-10-19T22:31:14.170Z,7.55
2022-10-19T22:33:40.546Z,7.52
2022-10-19T22:36:08.467Z,7.49
2022-10-19T22:38:35.279Z,7.53
2022-10-19T22:41:58.231Z,7.54
2022-10-19T22:44:24.603Z,7.55
2022-10-19T22:46:50.957Z,7.54
2022-10-19T22:49:17.328Z,7.50
2022-10-19T22:51:43.722Z,7.49
2022-10-19T22:54:10.354Z,7.50
2022-10-19T22:56:36.878Z,7.47
2022-10-19T22:59:06.430Z,7.51
2022-10-19T23:01:33.474Z,7.45
2022-10-19T23:04:00.088Z,7.45
2022-10-19T23:06:26.583Z,7.49
2022-10-19T23:08:53.847Z,7.41
2022-10-19T23:11:20.871Z,7.34
2022-10-19T23:13:47.461Z,7.33
2022-10-19T23:16:14.018Z,7.32
2022-10-19T23:18:41.303Z,7.32
2022-10-19T23:21:11.025Z,7.31
2022-10-19T23:23:37.501Z,7.26
2022-10-19T23:26:05.538Z,7.26
2022-10-19T23:28:33.633Z,7.25
2022-10-19T23:31:05.333Z,7.24
2022-10-19T23:33:32.101Z,7.24
2022-10-19T23:36:28.963Z,7.27
2022-10-19T23:38:56.849Z,7.24
2022-10-19T23:41:23.680Z,7.27
2022-10-19T23:43:50.393Z,7.26
2022-10-19T23:46:16.872Z,7.27
2022-10-19T23:48:43.480Z,7.30
2022-10-19T23:51:14.513Z,7.27
2022-10-19T23:53:43.221Z,7.30
2022-10-19T23:56:16.798Z,7.21
2022-10-19T23:58:43.802Z,7.16
